createdAt,value
2022-07-30T00:05:17.665Z,63.92
2022-07-30T00:15:19.208Z,64.37
2022-07-30T00:25:20.691Z,64.79
2022-07-30T00:35:22.253Z,65.38
2022-07-30T00:45:23.836Z,65.98
2022-07-30T00:55:25.633Z,66.24
2022-07-30T01:05:27.155Z,66.72
2022-07-30T01:15:29.520Z,67.09
2022-07-30T01:25:31.930Z,66.67
2022-07-30T01:35:34.810Z,66.14
2022-07-30T01:45:42.279Z,65.48
2022-07-30T01:55:48.335Z,65.47
2022-07-30T02:05:55.698Z,65.63
2022-07-30T02:15:59.380Z,65.42
2022-07-30T02:26:01.932Z,64.94
2022-07-30T02:36:11.130Z,64.18
2022-07-30T02:46:15.229Z,65.37
2022-07-30T02:56:38.898Z,65.36
2022-07-30T03:06:42.412Z,64.51
2022-07-30T03:16:48.887Z,64.13
2022-07-30T03:26:55.191Z,63.68
2022-07-30T03:36:57.636Z,64.09
2022-07-30T03:47:00.965Z,64.22
2022-07-30T03:57:05.053Z,64.10
2022-07-30T04:07:17.638Z,64.26
2022-07-30T04:17:25.856Z,63.53
2022-07-30T04:27:28.506Z,63.69
2022-07-30T04:37:30.302Z,61.59
2022-07-30T04:47:31.881Z,61.49
2022-07-30T04:57:55.694Z,61.95
2022-07-30T05:07:57.727Z,59.87
2022-07-30T05:17:59.437Z,60.33
2022-07-30T05:28:01.121Z,60.11
2022-07-30T05:38:03.050Z,57.42
2022-07-30T05:48:13.432Z,54.46
2022-07-30T05:58:15.062Z,52.97
2022-07-30T06:08:16.723Z,48.70
2022-07-30T06:18:18.310Z,46.81
2022-07-30T06:28:37.454Z,29.35
2022-07-30T06:38:41.126Z,25.41
2022-07-30T06:48:47.521Z,19.62
2022-07-30T06:58:49.652Z,17.23
2022-07-30T07:09:09.723Z,17.65
2022-07-30T07:20:00.021Z,14.09
2022-07-30T07:30:04.898Z,12.17
2022-07-30T07:40:08.969Z,11.45
2022-07-30T07:50:18.210Z,10.45
2022-07-30T08:00:19.910Z,14.43
2022-07-30T08:10:21.449Z,13.64
2022-07-30T08:20:51.928Z,13.59
2022-07-30T08:31:02.137Z,15.59
2022-07-30T08:41:04.482Z,13.51
2022-07-30T08:51:06.768Z,15.45
2022-07-30T09:01:08.846Z,14.09
2022-07-30T09:11:11.735Z,13.07
2022-07-30T09:21:18.322Z,11.98
2022-07-30T09:31:24.213Z,11.71
2022-07-30T09:41:44.715Z,11.12
2022-07-30T09:51:54.539Z,11.51
2022-07-30T10:02:13.450Z,11.61
2022-07-30T10:12:34.986Z,12.87
2022-07-30T10:22:42.936Z,16.77
2022-07-30T10:33:07.901Z,16.32
2022-07-30T10:43:31.474Z,15.75
2022-07-30T10:53:33.512Z,16.49
2022-07-30T11:03:41.526Z,19.17
2022-07-30T11:14:01.097Z,19.02
2022-07-30T11:24:03.154Z,20.86
2022-07-30T11:34:34.545Z,22.19
2022-07-30T11:44:36.215Z,21.31
2022-07-30T11:54:54.722Z,22.45
2022-07-30T12:04:56.295Z,23.60
2022-07-30T12:15:01.752Z,22.18
2022-07-30T12:25:08.155Z,22.09
2022-07-30T12:35:10.510Z,23.40
2022-07-30T12:45:26.453Z,22.84
2022-07-30T12:55:31.382Z,20.92
2022-07-30T13:05:50.749Z,20.41
2022-07-30T13:16:02.989Z,20.48
2022-07-30T13:26:06.045Z,19.95
2022-07-30T13:36:07.860Z,20.34
2022-07-30T13:46:09.682Z,19.99
2022-07-30T13:56:12.860Z,19.10
2022-07-30T14:06:14.707Z,20.71
2022-07-30T14:16:42.383Z,18.55
2022-07-30T14:26:38.719Z,17.33
2022-07-30T14:36:40.218Z,17.99
2022-07-30T14:46:51.984Z,16.86
2022-07-30T14:56:59.130Z,17.23
2022-07-30T15:07:00.674Z,18.87
2022-07-30T15:17:04.490Z,19.69
2022-07-30T15:27:07.102Z,18.61
2022-07-30T15:37:09.502Z,17.91
2022-07-30T15:47:13.160Z,19.12
2022-07-30T15:57:14.867Z,19.94
2022-07-30T16:07:17.746Z,20.37
2022-07-30T16:17:19.276Z,21.19
2022-07-30T16:27:20.821Z,21.59
2022-07-30T16:37:22.354Z,21.16
2022-07-30T16:47:23.897Z,21.86
2022-07-30T16:57:25.377Z,22.91
2022-07-30T17:07:28.312Z,23.68
2022-07-30T17:17:30.092Z,23.81
2022-07-30T17:27:33.263Z,24.29
2022-07-30T17:37:34.770Z,24.56
2022-07-30T17:47:36.590Z,25.15
2022-07-30T17:57:38.433Z,25.17
2022-07-30T18:07:40.127Z,25.03
2022-07-30T18:17:41.717Z,26.76
2022-07-30T18:28:08.897Z,30.62
2022-07-30T18:38:14.365Z,32.09
2022-07-30T18:48:15.839Z,33.34
2022-07-30T18:58:17.601Z,34.60
2022-07-30T19:08:19.076Z,36.11
2022-07-30T19:18:20.829Z,36.88
2022-07-30T19:28:22.330Z,37.49
2022-07-30T19:38:24.143Z,37.66
2022-07-30T19:48:28.649Z,38.34
2022-07-30T19:58:32.406Z,38.79
2022-07-30T20:08:38.449Z,39.44
2022-07-30T20:18:42.094Z,40.38
2022-07-30T20:28:47.633Z,40.53
2022-07-30T20:38:54.501Z,40.77
2022-07-30T20:48:56.054Z,41.13
2022-07-30T20:58:58.801Z,41.16
2022-07-30T21:09:00.968Z,42.84
2022-07-30T21:19:07.269Z,44.59
2022-07-30T21:29:09.724Z,44.97
2022-07-30T21:39:13.753Z,45.83
2022-07-30T21:49:15.627Z,46.70
2022-07-30T21:59:17.162Z,45.74
2022-07-30T22:09:33.079Z,46.23
2022-07-30T22:19:35.855Z,46.32
2022-07-30T22:29:38.125Z,47.54
2022-07-30T22:39:51.062Z,48.00
2022-07-30T22:49:56.461Z,48.66
2022-07-30T23:00:01.138Z,48.96
2022-07-30T23:10:12.230Z,49.99
2022-07-30T23:20:20.449Z,51.17
2022-07-30T23:30:22.513Z,51.38
2022-07-30T23:40:24.097Z,52.22
2022-07-30T23:50:25.935Z,52.22
